• Join FlightAware (Why Join?)
  • Login
  • US Flag 
10:01PM EDT


 

Airport Tracker/Info


-or-


 

Live Flight TrackerFlight Track Log ✈ AWE1997 ✈ 22-Feb-2014 ✈ KRSW - KPHL

Flight Track Log - Related Links

Times and Time Zones

All times are in EST time to prevent confusion due to time zone crossing. See the AWE1997 flight status page for this flight to view local times or setup timezone preferences in your user account.

Time Position Orientation Groundspeed Altitude Reporting Facility
EST Latitude Longitude Course Direction KTS MPH feet Rate Location/Type
02:24PM 26.8948 -81.7333 North  Level FlightAware Approximate
02:24PM 26.5278 -81.9017 347° North 275 316 5,800  Level Miami Center
02:25PM 27.0172 -81.7336 340° North  Level FlightAware Approximate
02:25PM 26.6025 -81.9164 350° North 287 330 8,900  Level Miami Center
02:26PM 27.1331 -81.7777 343° North  Level FlightAware Approximate
02:26PM 26.6883 -81.9133 North 309 356 10,300  Level Miami Center
02:27PM 27.2507 -81.8146 339° North  Level FlightAware Approximate
02:27PM 26.7958 -81.8831 14° North 338 389 12,000  Level Miami Center
02:28PM 27.3665 -81.8583 347° North  Level FlightAware Approximate
02:28PM 26.8939 -81.8219 29° Northeast 382 440 14,800  Level Miami Center
02:29PM 26.9833 -81.7675 28° Northeast 400 460 17,000 1,080 Climbing Miami Center
02:30PM 27.0919 -81.7697 359° North 378 435 17,000 300 Level Miami Center
02:31PM 27.1889 -81.8019 344° North 360 414 17,700 1,320 Climbing Miami Center
02:32PM 27.3003 -81.8369 344° North 370 426 19,700 1,800 Climbing Miami Center
02:33PM 27.4056 -81.8719 344° North 384 442 21,300 1,500 Climbing Miami Center
02:34PM 27.5044 -81.9092 342° North 402 463 22,700 1,620 Climbing Miami Center
02:35PM 27.6303 -81.9544 342° North 420 483 24,600 1,500 Climbing Miami Center
02:36PM 27.7486 -81.9667 355° North 425 489 25,800 1,380 Climbing Miami Center
02:37PM 27.8442 -81.8631 44° Northeast 424 488 27,400 1,440 Climbing Miami Center
02:38PM 27.8917 -81.7525 64° Northeast 429 494 28,700 1,260 Climbing Miami Center
02:39PM 27.9592 -81.6050 63° Northeast 454 522 30,000 1,140 Climbing Miami Center
02:40PM 28.0200 -81.4689 63° Northeast 466 536 31,000 1,020 Climbing Miami Center
02:41PM 28.0958 -81.3142 61° Northeast 497 572 32,100 960 Climbing Miami Center
02:42PM 28.1625 -81.1828 60° Northeast 488 562 33,000 420 Climbing Miami Center
02:43PM 28.2267 -81.0581 60° Northeast 488 562 33,000  Level Miami Center
02:44PM 28.2931 -80.9236 61° Northeast 493 567 33,000  Level Miami Center
02:45PM 28.3633 -80.7989 57° Northeast 487 560 33,000  Level Miami Center
02:46PM 28.4375 -80.6836 54° Northeast 459 528 33,000  Level Miami Center
02:47PM 28.5139 -80.5608 55° Northeast 465 535 33,000  Level Miami Center
02:48PM 28.5925 -80.4217 57° Northeast 465 535 33,000  Level Miami Center
02:49PM 28.6583 -80.2842 61° Northeast 474 545 33,000  Level Miami Center
02:50PM 28.7156 -80.1558 63° Northeast 486 559 33,000  Level Miami Center
02:51PM 28.7833 -80.0158 61° Northeast 492 566 33,000  Level Miami Center
02:52PM 28.8492 -79.8731 62° Northeast 492 566 33,000  Level Miami Center
02:53PM 28.9125 -79.7350 62° Northeast 487 560 33,000  Level Miami Center
02:54PM 28.9778 -79.5989 61° Northeast 487 560 33,000  Level Miami Center
02:55PM 29.0428 -79.4653 61° Northeast 487 560 33,000  Level Miami Center
02:56PM 29.1119 -79.3317 59° Northeast 487 560 33,000  Level Miami Center
02:57PM 29.2297 -79.2842 19° North 436 502 33,000  Level Miami Center
02:58PM 29.3472 -79.2439 17° North 431 496 33,000  Level Miami Center
02:59PM 29.4667 -79.2014 17° North 437 503 33,000  Level Miami Center
03:00PM 29.6686 -79.1378 15° North 459 528 33,000  Level Jacksonville Center
03:01PM 29.7883 -79.0925 18° North 454 522 33,000  Level Jacksonville Center
03:02PM 29.9144 -79.0564 14° North 453 521 33,000  Level Jacksonville Center
03:03PM 30.0361 -79.0058 20° North 453 521 33,000  Level Jacksonville Center
03:04PM 30.1533 -78.9508 22° Northeast 458 527 33,000  Level Jacksonville Center
03:05PM 30.2856 -78.9019 18° North 452 520 33,000  Level Jacksonville Center
03:06PM 30.4092 -78.8536 19° North 448 516 33,000  Level Jacksonville Center
03:07PM 30.5267 -78.8053 20° North 446 513 33,000  Level Jacksonville Center
03:08PM 30.6503 -78.7564 19° North 454 522 33,000  Level Jacksonville Center
03:09PM 30.7697 -78.7078 19° North 447 514 33,000  Level Jacksonville Center
03:10PM 30.8956 -78.6586 19° North 460 529 33,000  Level Jacksonville Center
03:11PM 31.0128 -78.6072 21° North 454 522 33,000  Level Jacksonville Center
03:12PM 31.1239 -78.5633 19° North 454 522 33,000  Level Jacksonville Center
03:13PM 31.2414 -78.5167 19° North 454 522 33,000  Level Jacksonville Center
03:14PM 31.3647 -78.4647 20° North 460 529 33,000  Level Jacksonville Center
03:15PM 31.4842 -78.4153 19° North 460 529 33,000  Level Jacksonville Center
03:16PM 31.6014 -78.3656 20° North 455 524 33,000  Level Jacksonville Center
03:17PM 31.7228 -78.3183 18° North 460 529 33,000  Level Jacksonville Center
03:18PM 31.8581 -78.2503 23° Northeast 467 537 33,000  Level Jacksonville Center
03:19PM 31.9817 -78.2050 17° North 467 537 33,000  Level Jacksonville Center
03:20PM 32.1047 -78.1472 22° Northeast 467 537 33,000  Level Jacksonville Center
03:21PM 32.2303 -78.0989 18° North 467 537 33,000  Level Jacksonville Center
03:22PM 32.3514 -78.0483 19° North 461 531 33,000  Level Jacksonville Center
03:23PM 32.4769 -77.9972 19° North 461 531 33,000  Level Jacksonville Center
03:24PM 32.6000 -77.9464 19° North 461 531 33,000  Level Jacksonville Center
03:25PM 32.7253 -77.8900 21° North 461 531 33,000  Level Jacksonville Center
03:26PM 32.8483 -77.8411 18° North 461 531 33,000  Level Jacksonville Center
03:27PM 32.9733 -77.7847 21° North 466 536 33,000  Level Jacksonville Center
03:29PM 33.1708 -77.7028 19° North 465 535 33,000  Level Washington Center
03:30PM 33.2947 -77.6486 20° North 465 535 33,000  Level Washington Center
03:31PM 33.4208 -77.5969 19° North 471 542 33,000  Level Washington Center
03:32PM 33.5447 -77.5403 21° North 471 542 33,000  Level Washington Center
03:33PM 33.6708 -77.4858 20° North 471 542 33,000  Level Washington Center
03:34PM 33.7894 -77.5008 354° North 448 516 33,000  Level Washington Center
03:35PM 33.8928 -77.5633 333° Northwest 412 474 33,000  Level Washington Center
03:36PM 33.9983 -77.6183 337° Northwest 401 461 33,000  Level Washington Center
03:37PM 34.1236 -77.6039 North 424 488 33,000  Level Washington Center
03:38PM 34.2567 -77.5092 30° Northeast 440 506 33,000  Level Washington Center
03:39PM 34.3728 -77.4189 33° Northeast 463 533 33,000  Level Washington Center
03:40PM 34.4947 -77.3561 23° Northeast 476 548 33,000  Level Washington Center
03:41PM 34.6228 -77.3083 17° North 476 548 33,000  Level Washington Center
03:42PM 34.7467 -77.2478 22° Northeast 476 548 33,000  Level Washington Center
03:43PM 34.8581 -77.1842 25° Northeast 476 548 33,000  Level Washington Center
03:44PM 34.9989 -77.1133 22° Northeast 484 557 33,000  Level Washington Center
03:45PM 35.1122 -77.0519 24° Northeast 484 557 33,000  Level Washington Center
03:46PM 35.2383 -76.9883 22° Northeast 484 557 33,000  Level Washington Center
03:47PM 35.3661 -76.9217 23° Northeast 484 557 33,000  Level Washington Center
03:48PM 35.4922 -76.8575 23° Northeast 484 557 33,000  Level Washington Center
03:49PM 35.6181 -76.7878 24° Northeast 484 557 33,000  Level Washington Center
03:50PM 35.7417 -76.7231 23° Northeast 484 557 33,000  Level Washington Center
03:51PM 35.8697 -76.6583 22° Northeast 484 557 33,000  Level Washington Center
03:52PM 35.9933 -76.5906 24° Northeast 484 557 33,000  Level Washington Center
03:53PM 36.1211 -76.5253 22° Northeast 484 557 33,000  Level Washington Center
03:54PM 36.2447 -76.4600 23° Northeast 477 549 33,000  Level Washington Center
03:55PM 36.3683 -76.3942 23° Northeast 477 549 33,000  Level Washington Center
03:56PM 36.4939 -76.3283 23° Northeast 477 549 33,000 -300 Level Washington Center
03:57PM 36.6153 -76.2622 24° Northeast 477 549 32,500 -840 Descending Washington Center
03:58PM 36.7511 -76.1856 24° Northeast 477 549 31,400 -1,080 Descending Washington Center
03:59PM 36.8706 -76.1189 24° Northeast 477 549 30,400 -960 Descending Washington Center
04:00PM 37.0022 -76.0547 21° North 477 549 29,500 -720 Descending Washington Center
04:01PM 37.1275 -75.9825 25° Northeast 490 564 29,000 -300 Descending Washington Center
04:02PM 37.2572 -75.9128 23° Northeast 490 564 29,000 -600 Level Washington Center
04:03PM 37.3825 -75.8428 24° Northeast 496 571 27,900 -1,320 Descending Washington Center
04:04PM 37.5078 -75.7778 22° Northeast 496 571 26,400 -1,500 Descending Washington Center
04:05PM 37.6289 -75.7097 24° Northeast 491 565 25,000 -720 Descending Washington Center
04:06PM 37.7456 -75.6417 25° Northeast 474 545 25,000  Level Washington Center
04:07PM 37.8644 -75.5761 24° Northeast 461 531 25,000  Level Washington Center
04:08PM 37.9811 -75.5100 24° Northeast 461 531 25,000 -420 Level Washington Center
04:09PM 38.0958 -75.4439 24° Northeast 456 525 24,200 -1,500 Descending Washington Center
04:10PM 38.2083 -75.3697 27° Northeast 456 525 22,100 -2,040 Descending Washington Center
04:11PM 38.3186 -75.2981 27° Northeast 451 519 20,100 -2,040 Descending Washington Center
04:12PM 38.4250 -75.2339 25° Northeast 431 496 18,100 -1,800 Descending Washington Center
04:13PM 38.5247 -75.1672 28° Northeast 418 481 16,500 -1,440 Descending Washington Center
04:14PM 38.6183 -75.1108 25° Northeast 384 442 15,200 -780 Descending Washington Center
04:15PM 38.7119 -75.0517 26° Northeast 372 428 15,000 -120 Descending Washington Center
04:16PM 38.8033 -75.0003 24° Northeast 366 421 15,000 -300 Level Washington Center
04:17PM 38.8969 -74.9436 25° Northeast 361 415 14,400 -720 Descending Washington Center
04:18PM 38.9861 -74.8867 26° Northeast 361 415 13,600 -960 Descending Washington Center
04:19PM 39.0756 -74.8269 27° Northeast 361 415 12,500 -1,320 Descending Washington Center
04:20PM 39.1606 -74.7778 24° Northeast 356 410 11,000 -780 Descending Washington Center
04:21PM 39.2436 -74.7233 27° Northeast 341 392 11,000  Level Washington Center
04:22PM 39.3286 -74.6714 25° Northeast 336 387 11,000 -600 Level Washington Center
04:23PM 39.4097 -74.6353 19° North 330 380 9,900 -720 Descending Washington Center
04:25PM 39.4833 -74.7667 306° West 212 244 9,000 -360 Descending Philadelphia TRACON
04:26PM 39.5000 -74.8333 288° West 223 257 9,000  Level Philadelphia TRACON
04:27PM 39.5000 -74.9167 270° West 222 255 9,000 -540 Level Philadelphia TRACON
04:28PM 39.4833 -75.0000 255° West 227 261 8,000 -960 Descending Philadelphia TRACON
04:29PM 39.5333 -75.0333 333° Northwest 258 297 7,100 -540 Descending Philadelphia TRACON
04:30PM 39.6000 -75.0500 349° North 239 275 7,000 -60 Descending Philadelphia TRACON
04:31PM 39.6667 -75.0667 349° North 253 291 7,000 -540 Level Philadelphia TRACON
04:32PM 39.7333 -75.0333 21° North 284 327 6,000 -540 Descending Philadelphia TRACON
04:33PM 39.8000 -74.9833 30° Northeast 221 254 6,000 -660 Level Philadelphia TRACON
04:34PM 39.8500 -74.9833 360° North 179 206 4,700 -1,440 Descending Philadelphia TRACON
04:35PM 39.8667 -75.0333 293° West 150 173 3,200 -1,380 Descending Philadelphia TRACON
04:36PM 39.8833 -75.0833 293° West 159 183 2,000 -960 Descending Philadelphia TRACON
04:37PM 39.9000 -75.1333 293° West 154 177 1,300 -720 Descending Philadelphia TRACON
04:38PM 39.8833 -75.1833 247° West 128 147 600 -720 Descending Philadelphia TRACON
04:40PM 39.8667 -75.2333 281° West  Level FlightAware Approximate
04:47PM 39.8722 -75.2409 281° West  Level Estimated
04:48PM 39.8722 -75.2409 281° West  Level Estimated